createdAt,value
2019-01-21T00:02:28.164Z,101947.89
2019-01-21T00:05:04.630Z,101946.72
2019-01-21T00:07:39.860Z,101943.78
2019-01-21T00:10:12.996Z,101938.03
2019-01-21T00:12:55.166Z,101945.31
2019-01-21T00:15:32.942Z,101941.98
2019-01-21T00:18:11.432Z,101942.53
2019-01-21T00:20:45.209Z,101937.91
2019-01-21T00:23:18.510Z,101936.90
2019-01-21T00:25:51.532Z,101940.98
2019-01-21T00:28:25.088Z,101949.92
2019-01-21T00:31:03.168Z,101948.81
2019-01-21T00:33:36.802Z,101950.62
2019-01-21T00:36:11.272Z,101952.34
2019-01-21T00:38:44.042Z,101944.88
2019-01-21T00:41:22.639Z,101941.63
2019-01-21T00:43:58.452Z,101941.97
2019-01-21T00:46:34.999Z,101954.44
2019-01-21T00:49:10.816Z,101956.28
2019-01-21T00:51:41.198Z,101953.05
2019-01-21T00:54:13.677Z,101952.80
2019-01-21T00:56:48.608Z,101954.88
2019-01-21T00:59:17.346Z,101963.90
2019-01-21T01:01:47.036Z,101953.86
2019-01-21T01:04:16.637Z,101950.73
2019-01-21T01:06:46.230Z,101947.67
2019-01-21T01:09:15.860Z,101942.22
2019-01-21T01:11:45.469Z,101944.09
2019-01-21T01:14:15.134Z,101935.84
2019-01-21T01:16:44.716Z,101936.52
2019-01-21T01:19:14.302Z,101943.66
2019-01-21T01:21:43.976Z,101936.22
2019-01-21T01:24:13.990Z,101938.30
2019-01-21T01:26:43.616Z,101936.64
2019-01-21T01:29:13.242Z,101930.01
2019-01-21T01:31:43.331Z,101935.34
2019-01-21T01:34:12.895Z,101945.69
2019-01-21T01:36:42.507Z,101937.06
2019-01-21T01:39:12.147Z,101937.58
2019-01-21T01:41:41.814Z,101933.88
2019-01-21T01:44:11.452Z,101941.73
2019-01-21T01:46:41.212Z,101948.30
2019-01-21T01:49:11.091Z,101946.67
2019-01-21T01:51:40.746Z,101949.88
2019-01-21T01:54:10.431Z,101941.79
2019-01-21T01:56:40.061Z,101945.15
2019-01-21T01:59:09.931Z,101943.06
2019-01-21T02:01:39.674Z,101937.95
2019-01-21T02:04:09.433Z,101942.34
2019-01-21T02:06:39.148Z,101947.94
2019-01-21T02:09:09.112Z,101943.57
2019-01-21T02:11:39.004Z,101941.48
2019-01-21T02:14:08.757Z,101946.02
2019-01-21T02:16:38.345Z,101938.81
2019-01-21T02:19:08.071Z,101930.86
2019-01-21T02:21:37.797Z,101941.49
2019-01-21T02:24:08.618Z,101937.14
2019-01-21T02:27:00.830Z,101933.94
2019-01-21T02:29:51.193Z,101925.66
2019-01-21T02:32:46.612Z,101927.06
2019-01-21T02:35:34.071Z,101923.44
2019-01-21T02:39:02.088Z,101930.00
2019-01-21T02:41:40.951Z,101927.38
2019-01-21T02:44:43.117Z,101921.02
2019-01-21T02:47:43.581Z,101923.37
2019-01-21T02:50:50.343Z,101918.29
2019-01-21T02:54:02.026Z,101915.98
2019-01-21T02:57:28.145Z,101904.37
2019-01-21T03:00:17.152Z,101900.25
2019-01-21T03:03:11.753Z,101889.21
2019-01-21T03:06:28.344Z,101883.36
2019-01-21T03:09:19.284Z,101885.66
2019-01-21T03:12:22.169Z,101877.42
2019-01-21T03:15:28.180Z,101873.82
2019-01-21T03:18:25.129Z,101875.28
2019-01-21T03:21:45.872Z,101877.39
2019-01-21T03:24:36.314Z,101866.03
2019-01-21T03:27:30.243Z,101870.26
2019-01-21T03:30:22.358Z,101873.23
2019-01-21T03:33:27.408Z,101874.00
2019-01-21T03:36:41.377Z,101872.72
2019-01-21T03:39:51.301Z,101867.42
2019-01-21T03:42:46.504Z,101866.48
2019-01-21T03:45:49.587Z,101863.69
2019-01-21T03:48:34.110Z,101863.41
2019-01-21T03:51:37.572Z,101862.03
2019-01-21T03:54:20.588Z,101861.94
2019-01-21T03:57:10.914Z,101867.95
2019-01-21T03:59:59.058Z,101861.94
2019-01-21T04:03:09.288Z,101870.80
2019-01-21T04:06:07.778Z,101871.59
2019-01-21T04:08:45.708Z,101870.59
2019-01-21T04:11:47.536Z,101864.01
2019-01-21T04:14:43.026Z,101868.58
2019-01-21T04:17:50.656Z,101868.54
2019-01-21T04:20:31.753Z,101860.36
2019-01-21T04:23:34.444Z,101857.61
2019-01-21T04:26:28.336Z,101855.13
2019-01-21T04:29:39.926Z,101859.42
2019-01-21T04:32:16.268Z,101852.06
2019-01-21T04:35:28.600Z,101854.88
2019-01-21T04:38:57.473Z,101849.55
2019-01-21T04:42:05.615Z,101839.95
2019-01-21T04:44:59.509Z,101839.69
2019-01-21T04:47:49.339Z,101832.13
2019-01-21T04:51:03.480Z,101824.47
2019-01-21T04:54:23.808Z,101823.84
2019-01-21T04:57:17.632Z,101820.33
2019-01-21T05:00:25.882Z,101813.45
2019-01-21T05:03:19.330Z,101815.99
2019-01-21T05:06:35.180Z,101822.28
2019-01-21T05:09:15.962Z,101816.60
2019-01-21T05:12:18.697Z,101814.75
2019-01-21T05:15:48.036Z,101815.34
2019-01-21T05:18:48.564Z,101812.59
2019-01-21T05:22:04.034Z,101811.14
2019-01-21T05:25:34.330Z,101814.66
2019-01-21T05:29:06.681Z,101810.70
2019-01-21T05:31:58.444Z,101810.84
2019-01-21T05:34:54.926Z,101814.89
2019-01-21T05:37:50.467Z,101810.70
2019-01-21T05:41:19.616Z,101807.11
2019-01-21T05:44:16.017Z,101804.80
2019-01-21T05:47:11.610Z,101800.44
2019-01-21T05:50:31.404Z,101796.11
2019-01-21T05:53:25.853Z,101794.06
2019-01-21T05:56:27.824Z,101790.48
2019-01-21T05:59:24.672Z,101785.90
2019-01-21T06:02:22.494Z,101790.79
2019-01-21T06:05:35.182Z,101792.05
2019-01-21T06:08:42.109Z,101781.09
2019-01-21T06:11:22.689Z,101782.06
2019-01-21T06:14:42.921Z,101781.65
2019-01-21T06:17:39.677Z,101775.53
2019-01-21T06:20:42.053Z,101783.41
2019-01-21T06:23:37.583Z,101787.97
2019-01-21T06:26:32.236Z,101784.88
2019-01-21T06:29:45.222Z,101783.05
2019-01-21T06:32:48.268Z,101787.11
2019-01-21T06:35:49.938Z,101788.03
2019-01-21T06:38:54.592Z,101791.76
2019-01-21T06:42:01.793Z,101796.22
2019-01-21T06:45:02.621Z,101803.64
2019-01-21T06:48:01.996Z,101797.34
2019-01-21T06:50:50.271Z,101810.88
2019-01-21T06:53:44.234Z,101811.38
2019-01-21T06:57:04.406Z,101819.03
2019-01-21T07:00:11.224Z,101825.98
2019-01-21T07:03:26.372Z,101819.34
2019-01-21T07:06:23.293Z,101820.58
2019-01-21T07:09:43.336Z,101830.41
2019-01-21T07:12:43.123Z,101823.23
2019-01-21T07:15:40.350Z,101828.17
2019-01-21T07:19:10.956Z,101828.25
2019-01-21T07:22:14.620Z,101828.88
2019-01-21T07:24:51.025Z,101829.16
2019-01-21T07:28:16.978Z,101813.34
2019-01-21T07:31:20.074Z,101804.56
2019-01-21T07:34:00.961Z,101801.70
2019-01-21T07:36:44.715Z,101816.16
2019-01-21T07:39:42.762Z,101817.50
2019-01-21T07:42:38.885Z,101828.62
2019-01-21T07:45:21.392Z,101823.98
2019-01-21T07:48:27.929Z,101829.47
2019-01-21T07:51:37.068Z,101827.95
2019-01-21T07:54:40.606Z,101827.56
2019-01-21T07:57:51.619Z,101828.49
2019-01-21T08:00:55.745Z,101825.08
2019-01-21T08:04:02.244Z,101827.15
2019-01-21T08:07:04.174Z,101824.28
2019-01-21T08:10:18.226Z,101834.20
2019-01-21T08:13:18.431Z,101831.84
2019-01-21T08:16:31.466Z,101825.55
2019-01-21T08:19:27.411Z,101815.91
2019-01-21T08:22:33.095Z,101815.67
2019-01-21T08:25:26.391Z,101825.72
2019-01-21T08:28:14.167Z,101815.03
2019-01-21T08:31:10.498Z,101809.92
2019-01-21T08:34:17.478Z,101806.11
2019-01-21T08:37:37.376Z,101806.25
2019-01-21T08:41:09.419Z,101803.34
2019-01-21T08:43:53.677Z,101789.45
2019-01-21T08:46:53.718Z,101783.61
2019-01-21T08:50:02.344Z,101779.57
2019-01-21T08:53:05.863Z,101772.91
2019-01-21T08:56:16.138Z,101765.27
2019-01-21T08:59:07.751Z,101757.03
2019-01-21T09:02:30.611Z,101765.55
2019-01-21T09:05:36.564Z,101767.23
2019-01-21T09:08:37.864Z,101767.07
2019-01-21T09:11:39.561Z,101778.36
2019-01-21T09:14:33.325Z,101777.61
2019-01-21T09:17:16.058Z,101778.85
2019-01-21T09:20:21.718Z,101775.46
2019-01-21T09:23:03.031Z,101774.62
2019-01-21T09:26:19.936Z,101781.03
2019-01-21T09:29:24.589Z,101773.44
2019-01-21T09:32:11.745Z,101780.66
2019-01-21T09:35:12.103Z,101788.34
2019-01-21T09:38:05.212Z,101790.85
2019-01-21T09:41:34.992Z,101784.09
2019-01-21T09:45:04.208Z,101783.63
2019-01-21T09:47:32.529Z,101780.66
2019-01-21T09:50:02.234Z,101777.17
2019-01-21T09:52:32.146Z,101786.27
2019-01-21T09:55:01.953Z,101772.91
2019-01-21T09:57:33.469Z,101775.13
2019-01-21T10:00:05.174Z,101766.94
2019-01-21T10:02:40.263Z,101768.97
2019-01-21T10:05:12.757Z,101776.52
2019-01-21T10:07:47.658Z,101770.08
2019-01-21T10:10:43.818Z,101770.01
2019-01-21T10:13:57.699Z,101771.80
2019-01-21T10:16:47.431Z,101762.37
2019-01-21T10:19:58.776Z,101750.03
2019-01-21T10:22:49.947Z,101744.06
2019-01-21T10:25:47.803Z,101743.99
2019-01-21T10:28:49.943Z,101743.31
2019-01-21T10:32:08.092Z,101735.98
2019-01-21T10:35:02.754Z,101747.92
2019-01-21T10:38:13.050Z,101748.77
2019-01-21T10:41:11.777Z,101738.96
2019-01-21T10:44:13.042Z,101736.95
2019-01-21T10:47:14.172Z,101725.20
2019-01-21T10:50:17.663Z,101728.30
2019-01-21T10:53:01.926Z,101722.11
2019-01-21T10:56:15.790Z,101721.25
2019-01-21T10:59:17.229Z,101720.05
2019-01-21T11:02:35.054Z,101716.11
2019-01-21T11:05:28.690Z,101712.41
2019-01-21T11:08:18.456Z,101703.30
2019-01-21T11:11:05.749Z,101700.66
2019-01-21T11:14:01.230Z,101688.59
2019-01-21T11:16:58.160Z,101687.63
2019-01-21T11:20:04.157Z,101686.42
2019-01-21T11:22:51.993Z,101678.42
2019-01-21T11:26:18.268Z,101676.78
2019-01-21T11:29:16.099Z,101674.20
2019-01-21T11:32:33.526Z,101668.25
2019-01-21T11:35:26.185Z,101665.81
2019-01-21T11:38:17.726Z,101666.73
2019-01-21T11:41:11.793Z,101652.95
2019-01-21T11:44:07.378Z,101646.98
2019-01-21T11:47:36.372Z,101644.63
2019-01-21T11:50:36.248Z,101636.34
2019-01-21T11:53:31.478Z,101636.28
2019-01-21T11:56:28.190Z,101629.51
2019-01-21T11:59:25.268Z,101622.06
2019-01-21T12:02:25.921Z,101623.66
2019-01-21T12:05:17.648Z,101614.09
2019-01-21T12:08:43.204Z,101614.52
2019-01-21T12:11:28.305Z,101612.59
2019-01-21T12:14:25.382Z,101613.89
2019-01-21T12:17:40.357Z,101608.41
2019-01-21T12:20:54.184Z,101601.04
2019-01-21T12:24:08.329Z,101604.86
2019-01-21T12:27:18.762Z,101602.77
2019-01-21T12:30:34.069Z,101595.38
2019-01-21T12:33:50.249Z,101594.10
2019-01-21T12:36:37.313Z,101586.39
2019-01-21T12:39:49.978Z,101586.80
2019-01-21T12:43:09.470Z,101584.15
2019-01-21T12:46:14.102Z,101581.11
2019-01-21T12:49:07.123Z,101583.09
2019-01-21T12:52:26.924Z,101572.91
2019-01-21T12:55:37.324Z,101574.23
2019-01-21T12:58:41.605Z,101564.35
2019-01-21T13:01:17.294Z,101566.01
2019-01-21T13:04:46.387Z,101557.92
2019-01-21T13:07:42.412Z,101555.13
2019-01-21T13:10:50.204Z,101562.09
2019-01-21T13:13:43.212Z,101557.95
2019-01-21T13:16:27.774Z,101554.47
2019-01-21T13:19:47.748Z,101551.16
2019-01-21T13:22:54.639Z,101551.55
2019-01-21T13:25:46.391Z,101553.87
2019-01-21T13:28:52.590Z,101544.97
2019-01-21T13:32:00.737Z,101551.55
2019-01-21T13:35:13.675Z,101550.86
2019-01-21T13:38:26.874Z,101552.23
2019-01-21T13:41:31.972Z,101559.28
2019-01-21T13:44:28.244Z,101554.55
2019-01-21T13:47:26.513Z,101550.56
2019-01-21T13:50:13.983Z,101545.09
2019-01-21T13:53:26.460Z,101548.01
2019-01-21T13:56:25.205Z,101540.64
2019-01-21T13:59:34.323Z,101530.88
2019-01-21T14:02:13.268Z,101534.38
2019-01-21T14:05:20.661Z,101532.13
2019-01-21T14:08:15.796Z,101531.94
2019-01-21T14:11:13.741Z,101527.37
2019-01-21T14:13:54.919Z,101524.55
2019-01-21T14:16:45.647Z,101523.73
2019-01-21T14:19:36.603Z,101513.16
2019-01-21T14:22:47.617Z,101515.34
2019-01-21T14:26:10.325Z,101518.47
2019-01-21T14:29:30.365Z,101498.98
2019-01-21T14:32:24.935Z,101503.57
2019-01-21T14:35:34.907Z,101495.29
2019-01-21T14:38:52.861Z,101488.59
2019-01-21T14:42:10.832Z,101492.03
2019-01-21T14:45:28.257Z,101477.84
2019-01-21T14:48:50.923Z,101479.36
2019-01-21T14:52:00.807Z,101479.52
2019-01-21T14:54:40.195Z,101479.65
2019-01-21T14:57:35.171Z,101476.23
2019-01-21T15:00:32.339Z,101474.44
2019-01-21T15:03:43.757Z,101475.19
2019-01-21T15:07:04.499Z,101470.42
2019-01-21T15:09:48.752Z,101477.91
2019-01-21T15:12:50.125Z,101475.91
2019-01-21T15:15:45.772Z,101478.91
2019-01-21T15:18:52.706Z,101469.77
2019-01-21T15:22:12.792Z,101473.23
2019-01-21T15:25:18.132Z,101469.73
2019-01-21T15:28:19.252Z,101470.61
2019-01-21T15:31:35.304Z,101464.87
2019-01-21T15:34:12.926Z,101456.28
2019-01-21T15:37:27.197Z,101456.59
2019-01-21T15:40:47.429Z,101461.41
2019-01-21T15:43:47.950Z,101457.76
2019-01-21T15:46:59.769Z,101453.92
2019-01-21T15:49:50.179Z,101458.13
2019-01-21T15:52:34.840Z,101456.61
2019-01-21T15:55:33.240Z,101451.43
2019-01-21T15:58:47.767Z,101457.59
2019-01-21T16:01:53.047Z,101445.38
2019-01-21T16:04:46.151Z,101449.53
2019-01-21T16:07:52.154Z,101453.16
2019-01-21T16:11:05.064Z,101452.84
2019-01-21T16:13:50.833Z,101449.46
2019-01-21T16:16:54.226Z,101443.11
2019-01-21T16:19:35.255Z,101444.82
2019-01-21T16:22:42.343Z,101449.61
2019-01-21T16:25:39.827Z,101440.20
2019-01-21T16:28:33.935Z,101445.19
2019-01-21T16:31:11.665Z,101449.27
2019-01-21T16:34:19.516Z,101444.70
2019-01-21T16:37:27.818Z,101446.98
2019-01-21T16:40:19.547Z,101441.34
2019-01-21T16:42:49.275Z,101446.95
2019-01-21T16:45:18.922Z,101441.50
2019-01-21T16:47:48.628Z,101443.19
2019-01-21T16:50:18.324Z,101442.80
2019-01-21T16:52:48.048Z,101447.14
2019-01-21T16:55:17.665Z,101441.33
2019-01-21T16:57:47.278Z,101439.72
2019-01-21T17:00:16.951Z,101441.20
2019-01-21T17:02:46.695Z,101435.56
2019-01-21T17:05:16.394Z,101435.37
2019-01-21T17:07:46.350Z,101434.39
2019-01-21T17:10:16.072Z,101443.45
2019-01-21T17:12:45.790Z,101444.16
2019-01-21T17:15:15.595Z,101450.13
2019-01-21T17:17:46.355Z,101440.73
2019-01-21T17:20:18.505Z,101438.90
2019-01-21T17:22:48.243Z,101433.27
2019-01-21T17:25:18.117Z,101438.20
2019-01-21T17:27:47.810Z,101431.20
2019-01-21T17:30:17.578Z,101422.92
2019-01-21T17:32:47.183Z,101426.28
2019-01-21T17:35:16.958Z,101430.79
2019-01-21T17:37:46.686Z,101427.02
2019-01-21T17:40:17.640Z,101425.63
2019-01-21T17:42:47.388Z,101424.48
2019-01-21T17:45:18.536Z,101424.62
2019-01-21T17:47:48.251Z,101423.28
2019-01-21T17:50:18.666Z,101417.30
2019-01-21T17:52:48.351Z,101413.02
2019-01-21T17:55:18.057Z,101417.16
2019-01-21T17:57:47.742Z,101413.66
2019-01-21T18:00:21.937Z,101407.53
2019-01-21T18:02:51.525Z,101412.47
2019-01-21T18:05:21.321Z,101403.52
2019-01-21T18:07:50.934Z,101403.44
2019-01-21T18:10:21.296Z,101405.69
2019-01-21T18:12:50.994Z,101403.67
2019-01-21T18:15:20.712Z,101405.20
2019-01-21T18:17:50.395Z,101418.42
2019-01-21T18:20:23.071Z,101416.59
2019-01-21T18:22:52.826Z,101401.50
2019-01-21T18:25:22.455Z,101396.30
2019-01-21T18:27:52.072Z,101396.00
2019-01-21T18:30:24.240Z,101403.00
2019-01-21T18:32:53.969Z,101399.35
2019-01-21T18:35:23.686Z,101391.38
2019-01-21T18:37:53.423Z,101385.23
2019-01-21T18:40:23.534Z,101385.43
2019-01-21T18:42:53.216Z,101388.42
2019-01-21T18:45:25.593Z,101391.24
2019-01-21T18:47:55.284Z,101391.30
2019-01-21T18:50:24.958Z,101396.17
2019-01-21T18:52:54.935Z,101391.56
2019-01-21T18:55:24.705Z,101391.63
2019-01-21T18:57:55.988Z,101385.28
2019-01-21T19:00:26.693Z,101384.31
2019-01-21T19:02:56.377Z,101384.23
2019-01-21T19:05:26.101Z,101382.41
2019-01-21T19:07:55.745Z,101379.30
2019-01-21T19:10:25.519Z,101382.26
2019-01-21T19:12:55.309Z,101378.75
2019-01-21T19:15:30.595Z,101387.16
2019-01-21T19:18:00.585Z,101386.95
2019-01-21T19:20:30.987Z,101388.98
2019-01-21T19:23:00.785Z,101387.28
2019-01-21T19:25:31.180Z,101383.84
2019-01-21T19:28:01.898Z,101386.58
2019-01-21T19:30:31.737Z,101377.98
2019-01-21T19:33:01.837Z,101385.17
2019-01-21T19:35:34.300Z,101380.50
2019-01-21T19:38:04.062Z,101381.42
2019-01-21T19:40:33.849Z,101384.72
2019-01-21T19:43:03.712Z,101382.87
2019-01-21T19:45:33.387Z,101379.77
2019-01-21T19:48:03.028Z,101381.70
2019-01-21T19:50:32.729Z,101381.70
2019-01-21T19:53:02.455Z,101380.73
2019-01-21T19:55:40.627Z,101372.17
2019-01-21T19:58:12.062Z,101370.03
2019-01-21T20:00:41.810Z,101363.23
2019-01-21T20:03:11.606Z,101357.57
2019-01-21T20:05:41.219Z,101356.91
2019-01-21T20:08:10.937Z,101352.95
2019-01-21T20:10:40.675Z,101357.52
2019-01-21T20:13:10.286Z,101353.66
2019-01-21T20:15:39.969Z,101343.73
2019-01-21T20:18:09.720Z,101350.91
2019-01-21T20:20:41.111Z,101345.63
2019-01-21T20:23:10.905Z,101358.89
2019-01-21T20:25:40.589Z,101357.05
2019-01-21T20:28:10.270Z,101356.17
2019-01-21T20:30:39.875Z,101359.09
2019-01-21T20:33:09.610Z,101353.16
2019-01-21T20:35:39.434Z,101348.67
2019-01-21T20:38:09.247Z,101350.16
2019-01-21T20:40:38.930Z,101349.17
2019-01-21T20:43:08.557Z,101346.73
2019-01-21T20:45:38.163Z,101342.59
2019-01-21T20:48:07.816Z,101334.03
2019-01-21T20:50:37.442Z,101333.69
2019-01-21T20:53:07.153Z,101335.28
2019-01-21T20:55:36.967Z,101331.38
2019-01-21T20:58:06.794Z,101328.02
2019-01-21T21:00:36.433Z,101335.16
2019-01-21T21:03:06.241Z,101329.41
2019-01-21T21:05:36.387Z,101332.94
2019-01-21T21:08:06.367Z,101325.73
2019-01-21T21:10:40.821Z,101327.03
2019-01-21T21:13:10.863Z,101327.55
2019-01-21T21:15:40.923Z,101329.02
2019-01-21T21:18:11.083Z,101324.75
2019-01-21T21:20:41.225Z,101331.39
2019-01-21T21:23:14.459Z,101320.44
2019-01-21T21:25:44.425Z,101324.70
2019-01-21T21:28:14.448Z,101329.45
2019-01-21T21:30:44.435Z,101327.35
2019-01-21T21:33:14.509Z,101321.93
2019-01-21T21:35:44.469Z,101322.75
2019-01-21T21:38:14.413Z,101325.76
2019-01-21T21:40:44.417Z,101322.48
2019-01-21T21:43:14.381Z,101326.61
2019-01-21T21:45:44.443Z,101329.25
2019-01-21T21:48:14.469Z,101325.61
2019-01-21T21:50:44.519Z,101324.80
2019-01-21T21:53:14.489Z,101319.67
2019-01-21T21:55:45.009Z,101318.16
2019-01-21T21:58:15.371Z,101314.06
2019-01-21T22:00:45.721Z,101311.73
2019-01-21T22:03:18.946Z,101307.30
2019-01-21T22:05:51.086Z,101302.31
2019-01-21T22:08:21.531Z,101302.65
2019-01-21T22:10:51.536Z,101297.53
2019-01-21T22:13:21.582Z,101298.50
2019-01-21T22:15:51.499Z,101298.02
2019-01-21T22:18:21.497Z,101298.35
2019-01-21T22:20:51.445Z,101300.17
2019-01-21T22:23:21.438Z,101296.73
2019-01-21T22:25:51.084Z,101283.34
2019-01-21T22:28:20.743Z,101284.67
2019-01-21T22:30:50.445Z,101277.39
2019-01-21T22:33:20.064Z,101279.55
2019-01-21T22:35:49.734Z,101280.04
2019-01-21T22:38:19.434Z,101274.06
2019-01-21T22:40:49.536Z,101273.91
2019-01-21T22:43:19.159Z,101274.88
2019-01-21T22:45:48.761Z,101272.27
2019-01-21T22:48:18.383Z,101268.29
2019-01-21T22:50:48.013Z,101260.86
2019-01-21T22:53:17.625Z,101267.44
2019-01-21T22:55:47.216Z,101256.20
2019-01-21T22:58:16.862Z,101263.98
2019-01-21T23:00:55.820Z,101260.70
2019-01-21T23:03:26.482Z,101259.37
2019-01-21T23:05:56.092Z,101264.98
2019-01-21T23:08:25.813Z,101259.55
2019-01-21T23:10:55.457Z,101260.01
2019-01-21T23:13:25.236Z,101264.97
2019-01-21T23:15:56.617Z,101258.69
2019-01-21T23:18:26.246Z,101253.59
2019-01-21T23:20:55.854Z,101252.25
2019-01-21T23:23:28.017Z,101247.47
2019-01-21T23:26:03.355Z,101251.42
2019-01-21T23:28:36.311Z,101249.44
2019-01-21T23:31:16.210Z,101248.45
2019-01-21T23:33:48.784Z,101245.14
2019-01-21T23:36:18.507Z,101238.70
2019-01-21T23:38:48.179Z,101237.69
2019-01-21T23:41:18.198Z,101239.19
2019-01-21T23:43:47.826Z,101231.27
2019-01-21T23:46:17.603Z,101231.91
2019-01-21T23:48:47.196Z,101225.31
2019-01-21T23:51:16.848Z,101216.72
2019-01-21T23:53:46.700Z,101218.20
2019-01-21T23:56:16.704Z,101215.71
2019-01-21T23:58:46.300Z,101209.59
